Apache Junction, Arizona
Current Conditions -  °F | °C
As of 7:47 PM on Tuesday 21 Oct 2014 (Local Time) from KIWA Reporting Station
Few Clouds Few Clouds  
Wind Chill: 25°   Ceiling: Unl
Heat Index: 26°   Visibility: 20mi
Dew Point: 10°   Wind: 0mph
Humidity: 39%   Direction: NA
Pressure: 29.85"   Gusts: NA
Location:  33.42°N, 111.54°W
Report Text: KIWA 220247Z 00000KT 20SM FEW250 25/10 A2985
Loading
Personal Weather Stations






























Interactive Weather Map
Tropical Storm Tracking
New forecast layout! Learn more

10-Day Weather Forecast

Advertisements
Track Severe Weather on mobile